Pagrindinis puslapis
METAR-TAF:

METAR-TAF

Oro uostai :

Enontekiö, Suomija

platuma: 68-21-52N, ilguma: 023-25-39E, Aukštis: 308 m

Dabartinis oras

Ataskaita buvo paskelbta 34 minutes, ne 04:50 UTC
Vėjas 12 kt iš Vakarų/Pietvakarių
Temperatūra 14°C
Drėgmė 67%
Slėgis 1000 hPa
Matomumas 10 km arba daugiau
Mažai debesys ne aukštis 200 ft

METAR: EFET 110450Z AUTO 24012KT 9999 FEW002 14/08 Q1000

Laikas: 08:24 (05:24 UTC)


TAF: trūkstamas

Orai ataskaitas ir orų prognozės (METAR, TAF).

turimą stotys yra geltonos ir raudonos taškus žemėlapyje.

Perkelti pele per norėdami pamatyti stoties vardą.

Tada spustelėkite, norėdami matyti oro stebėjimo ir prognozės.

Norėdami pakeisti žemėlapį: spustelėkite ant žalios mygtukų su juodo kryžiaus žemyn,; žalią mygtuką su brūkšneliu, jei norite nutolinti; arba žalių rodyklių gretimoms žemėlapius.


METAR-TAF: